Time;durP1;ratioP1;P1;durP2;ratioP2;P2;SDS_P1;SDS_P2;PMS_P1;PMS_P2;Temp;Humidity;BMP_temperature;BMP_pressure;BME280_temperature;BME280_humidity;BME280_pressure;Samples;Min_cycle;Max_cycle;Signal;HPM_P1;HPM_P2
2023/03/30 00:00:42;;;;;;;3.27;2.63;;;;;;;7.30;53.14;95357.53;5074622;28;20448;-78
2023/03/30 00:03:09;;;;;;;6.77;2.90;;;;;;;7.37;53.15;95361.41;5074206;28;20449;-78
2023/03/30 00:05:36;;;;;;;7.20;3.00;;;;;;;7.39;53.54;95359.53;5074478;28;20441;-79
2023/03/30 00:08:05;;;;;;;3.37;3.07;;;;;;;7.40;53.36;95355.16;5074247;28;20571;-79
2023/03/30 00:10:31;;;;;;;5.13;3.83;;;;;;;7.34;53.40;95356.41;5074122;28;20958;-79
2023/03/30 00:12:58;;;;;;;4.03;2.60;;;;;;;7.31;53.74;95346.16;5074279;28;20858;-78
2023/03/30 00:15:25;;;;;;;6.27;2.80;;;;;;;7.22;53.51;95351.94;5055272;28;20503;-78
2023/03/30 00:17:53;;;;;;;9.43;3.53;;;;;;;7.21;52.94;95355.50;5074240;28;20859;-78
2023/03/30 00:20:21;;;;;;;3.87;2.80;;;;;;;7.21;54.99;95349.44;5074089;28;20514;-78
2023/03/30 00:22:48;;;;;;;3.67;2.97;;;;;;;7.25;54.09;95346.56;5074289;28;20454;-78
2023/03/30 00:25:17;;;;;;;4.13;2.83;;;;;;;7.26;53.16;95347.41;5073973;28;21035;-78
2023/03/30 00:27:44;;;;;;;3.97;2.70;;;;;;;7.27;53.92;95343.84;5073878;28;20986;-79
2023/03/30 00:30:13;;;;;;;4.27;3.10;;;;;;;7.35;54.34;95342.41;5073812;28;20452;-78
2023/03/30 00:32:40;;;;;;;2.80;2.30;;;;;;;7.37;52.90;95345.75;5073742;28;20988;-78
2023/03/30 00:35:07;;;;;;;2.83;2.63;;;;;;;7.46;53.14;95350.38;5074537;28;20800;-78
2023/03/30 00:37:36;;;;;;;3.80;3.00;;;;;;;7.53;52.84;95347.38;5074862;28;20457;-78
2023/03/30 00:40:06;;;;;;;4.87;3.73;;;;;;;7.56;52.06;95348.00;5075281;28;20454;-78
2023/03/30 00:42:35;;;;;;;3.83;2.87;;;;;;;7.49;52.28;95336.28;5074966;28;20489;-78
2023/03/30 00:45:19;;;;;;;6.20;2.83;;;;;;;7.52;52.33;95343.06;5074843;28;20449;-78
2023/03/30 00:47:51;;;;;;;3.57;2.90;;;;;;;7.45;52.80;95335.63;5074281;28;20531;-78
2023/03/30 00:50:22;;;;;;;5.10;3.13;;;;;;;7.37;53.23;95350.97;5074726;28;20440;-78
2023/03/30 00:52:51;;;;;;;2.53;2.20;;;;;;;7.38;53.95;95352.66;5074556;28;20441;-79
2023/03/30 00:55:21;;;;;;;4.03;3.00;;;;;;;7.27;54.92;95346.47;5074831;28;20577;-79
2023/03/30 00:57:52;;;;;;;5.00;4.60;;;;;;;7.26;55.39;95340.41;5074343;28;20947;-78
2023/03/30 01:00:19;;;;;;;3.53;3.00;;;;;;;7.20;56.20;95337.31;5075107;28;20512;-78
2023/03/30 01:02:54;;;;;;;3.40;2.60;;;;;;;7.08;57.11;95339.78;5074585;28;20441;-79
2023/03/30 01:05:23;;;;;;;3.77;2.70;;;;;;;7.07;56.75;95358.16;5074372;28;20547;-78
2023/03/30 01:07:51;;;;;;;4.00;3.03;;;;;;;7.00;57.37;95351.66;5056172;28;20483;-79
2023/03/30 01:10:22;;;;;;;4.30;2.80;;;;;;;6.97;57.22;95341.44;5074446;28;20510;-78
2023/03/30 01:12:50;;;;;;;3.20;2.90;;;;;;;7.04;57.48;95350.53;5074463;28;20459;-78
2023/03/30 01:15:17;;;;;;;7.87;4.10;;;;;;;7.04;57.19;95350.53;5074780;28;20454;-79
2023/03/30 01:18:08;;;;;;;2.73;2.53;;;;;;;6.97;57.25;95350.09;5073965;28;20446;-78
2023/03/30 01:20:59;;;;;;;4.90;3.40;;;;;;;6.87;57.51;95340.31;5074089;28;20457;-78
2023/03/30 01:23:46;;;;;;;3.00;2.73;;;;;;;6.89;58.22;95349.72;5073941;28;20448;-78
2023/03/30 01:26:34;;;;;;;2.90;2.40;;;;;;;6.88;58.31;95348.03;5074046;28;20449;-78
2023/03/30 01:29:11;;;;;;;4.43;3.33;;;;;;;6.90;58.48;95350.56;5073893;28;20487;-78
2023/03/30 01:32:00;;;;;;;4.57;3.00;;;;;;;6.81;58.40;95355.41;5074411;28;20444;-78
2023/03/30 01:34:46;;;;;;;6.43;3.60;;;;;;;6.91;57.31;95354.84;5011697;28;21065;-78
2023/03/30 01:38:02;;;;;;;3.30;2.77;;;;;;;6.85;57.45;95358.66;4963849;28;20454;-78
2023/03/30 01:40:37;;;;;;;5.80;2.97;;;;;;;6.72;57.33;95350.78;4984437;28;20889;-79
2023/03/30 01:43:11;;;;;;;3.50;2.97;;;;;;;6.78;57.30;95357.38;5012049;28;20453;-79
2023/03/30 01:45:43;;;;;;;4.53;2.77;;;;;;;6.80;56.99;95353.75;5012142;28;20443;-79
2023/03/30 01:48:15;;;;;;;3.83;3.00;;;;;;;6.87;56.67;95353.34;5012127;28;20483;-78
2023/03/30 01:50:46;;;;;;;12.07;3.10;;;;;;;6.92;57.19;95348.69;5011789;28;20439;-79
2023/03/30 01:53:17;;;;;;;3.33;3.07;;;;;;;6.94;55.70;95347.69;5011841;28;20493;-78
2023/03/30 01:55:49;;;;;;;4.63;3.23;;;;;;;6.90;55.11;95343.56;5011488;28;20503;-78
2023/03/30 01:58:22;;;;;;;4.00;3.27;;;;;;;6.91;55.38;95347.00;5011865;28;20880;-78
2023/03/30 02:00:50;;;;;;;3.60;3.30;;;;;;;6.91;55.45;95344.41;5012169;28;20446;-78
2023/03/30 02:03:22;;;;;;;3.70;3.40;;;;;;;6.98;54.96;95343.94;4963340;28;20447;-78
2023/03/30 02:05:53;;;;;;;6.17;3.67;;;;;;;6.91;54.45;95332.19;5012277;28;20455;-78
2023/03/30 02:08:24;;;;;;;2.90;2.63;;;;;;;6.96;55.57;95358.84;4963319;28;20486;-78
2023/03/30 02:10:59;;;;;;;12.83;3.83;;;;;;;6.92;55.47;95366.94;5020531;28;20435;-79
2023/03/30 02:13:28;;;;;;;4.73;3.53;;;;;;;6.89;58.57;95354.94;5073569;28;20486;-79
2023/03/30 02:15:59;;;;;;;4.40;3.30;;;;;;;6.86;56.65;95369.94;5055587;28;20436;-78
2023/03/30 02:18:26;;;;;;;4.97;3.23;;;;;;;6.86;57.76;95370.78;5073247;28;20982;-78
2023/03/30 02:20:57;;;;;;;4.67;3.60;;;;;;;6.77;57.10;95340.91;5055288;28;20883;-78
2023/03/30 02:23:32;;;;;;;9.43;3.30;;;;;;;6.87;57.35;95356.81;5054976;28;20444;-79
2023/03/30 02:26:00;;;;;;;5.47;2.83;;;;;;;6.81;57.87;95352.81;5072717;28;20539;-78
2023/03/30 02:28:27;;;;;;;8.30;2.60;;;;;;;6.73;57.90;95364.66;5080296;28;21021;-78
2023/03/30 02:30:55;;;;;;;3.33;3.00;;;;;;;6.77;59.30;95371.38;5080352;28;20443;-78
2023/03/30 02:33:29;;;;;;;3.80;2.93;;;;;;;6.81;58.51;95367.63;5079494;28;20449;-78
2023/03/30 02:36:23;;;;;;;5.90;3.30;;;;;;;6.76;59.32;95364.47;5080072;28;20444;-78
2023/03/30 02:39:05;;;;;;;4.20;3.60;;;;;;;6.70;58.91;95373.53;5091000;28;20441;-78
2023/03/30 02:41:51;;;;;;;3.70;3.10;;;;;;;6.72;59.03;95379.47;5088905;28;20445;-77
2023/03/30 02:44:29;;;;;;;4.30;3.03;;;;;;;6.74;59.05;95369.78;5091949;28;20448;-77
2023/03/30 02:47:04;;;;;;;5.27;3.53;;;;;;;6.76;59.66;95373.13;5091621;28;20454;-77
2023/03/30 02:49:45;;;;;;;4.80;2.93;;;;;;;6.74;60.97;95380.22;5075151;28;20444;-77
2023/03/30 02:52:23;;;;;;;5.30;3.47;;;;;;;6.66;61.14;95379.03;5092719;28;20513;-77
2023/03/30 02:54:57;;;;;;;2.80;2.60;;;;;;;6.68;60.89;95391.03;5091846;28;20468;-77
2023/03/30 02:57:38;;;;;;;5.90;3.30;;;;;;;6.60;61.85;95382.81;5087290;28;20442;-77
2023/03/30 03:00:12;;;;;;;3.87;3.47;;;;;;;6.54;63.39;95388.41;5084066;28;20979;-77
2023/03/30 03:02:42;;;;;;;5.43;3.33;;;;;;;6.56;64.67;95383.94;5091330;28;20452;-79
2023/03/30 03:05:10;;;;;;;4.80;3.53;;;;;;;6.49;65.97;95377.44;5080101;28;20440;-78
2023/03/30 03:07:38;;;;;;;4.17;3.43;;;;;;;6.51;66.59;95386.84;5072144;28;20479;-78
2023/03/30 03:10:06;;;;;;;4.33;3.40;;;;;;;6.50;66.34;95381.72;5073424;28;20985;-79
2023/03/30 03:12:34;;;;;;;10.10;6.50;;;;;;;6.44;66.96;95382.09;5076287;28;20531;-79
2023/03/30 03:15:01;;;;;;;8.43;6.83;;;;;;;6.34;67.69;95368.75;5076714;28;20452;-78
2023/03/30 03:17:33;;;;;;;4.20;3.90;;;;;;;6.32;67.39;95381.06;5076595;28;20859;-76
2023/03/30 03:20:00;;;;;;;5.00;4.50;;;;;;;6.31;68.33;95384.59;5058833;28;20444;-78
2023/03/30 03:22:27;;;;;;;3.90;3.50;;;;;;;6.35;68.95;95386.06;5076391;28;20459;-78
2023/03/30 03:24:53;;;;;;;4.57;3.70;;;;;;;6.40;68.72;95391.03;5076267;28;20455;-78
2023/03/30 03:27:20;;;;;;;4.23;3.83;;;;;;;6.50;68.60;95394.75;5076376;28;20833;-78
2023/03/30 03:29:48;;;;;;;9.40;3.80;;;;;;;6.57;67.77;95390.84;5076499;28;21004;-78
2023/03/30 03:32:15;;;;;;;4.90;4.40;;;;;;;6.59;67.87;95388.97;5076111;28;20528;-79
2023/03/30 03:34:43;;;;;;;5.00;3.60;;;;;;;6.50;68.51;95400.81;5076070;28;20444;-77
2023/03/30 03:37:10;;;;;;;4.70;4.23;;;;;;;6.43;68.82;95399.50;5076069;28;20805;-78
2023/03/30 03:39:37;;;;;;;4.67;3.90;;;;;;;6.42;69.58;95400.44;5076183;28;20463;-78
2023/03/30 03:42:04;;;;;;;4.87;3.73;;;;;;;6.35;70.87;95387.84;5076238;28;20486;-78
2023/03/30 03:44:31;;;;;;;7.00;3.90;;;;;;;6.39;69.92;95398.03;5075582;28;20566;-77
2023/03/30 03:46:59;;;;;;;10.80;4.67;;;;;;;6.40;70.52;95398.84;5074522;28;20459;-79
2023/03/30 03:49:26;;;;;;;5.60;4.97;;;;;;;6.43;70.64;95406.50;5075928;28;20511;-78
2023/03/30 03:51:53;;;;;;;5.93;3.43;;;;;;;6.36;71.43;95405.16;5056979;28;20441;-77
2023/03/30 03:54:20;;;;;;;4.70;4.40;;;;;;;6.33;71.57;95410.56;5075830;28;20479;-77
2023/03/30 03:56:47;;;;;;;8.33;3.87;;;;;;;6.24;72.10;95408.50;5075729;28;20456;-78
2023/03/30 03:59:13;;;;;;;8.03;5.07;;;;;;;6.25;73.08;95418.00;5075955;28;20436;-77
2023/03/30 04:01:40;;;;;;;4.97;4.40;;;;;;;6.24;73.89;95417.16;5076090;28;20437;-78
2023/03/30 04:04:08;;;;;;;7.87;4.80;;;;;;;6.30;73.15;95418.56;5057271;28;20444;-78
2023/03/30 04:06:35;;;;;;;4.80;4.40;;;;;;;6.27;73.84;95416.97;5075641;28;20467;-79
2023/03/30 04:09:02;;;;;;;5.10;4.60;;;;;;;6.34;73.98;95414.84;5075704;28;20480;-78
2023/03/30 04:11:29;;;;;;;5.67;4.40;;;;;;;6.38;74.27;95405.94;5065124;28;20452;-78
2023/03/30 04:13:56;;;;;;;5.13;4.23;;;;;;;6.43;74.15;95415.16;5056354;28;20537;-78
2023/03/30 04:16:22;;;;;;;4.73;4.33;;;;;;;6.44;73.95;95413.38;5056192;28;20441;-78
2023/03/30 04:18:49;;;;;;;5.63;4.70;;;;;;;6.39;74.12;95418.88;5055352;28;20449;-80
2023/03/30 04:21:19;;;;;;;5.10;4.57;;;;;;;6.38;74.33;95417.19;5054613;28;20461;-77
2023/03/30 04:23:47;;;;;;;5.37;4.83;;;;;;;6.34;75.09;95407.84;5054870;28;20449;-76
2023/03/30 04:26:14;;;;;;;7.33;4.87;;;;;;;6.50;74.79;95410.41;5058533;28;20507;-78
2023/03/30 04:28:41;;;;;;;13.50;5.37;;;;;;;6.74;74.02;95418.50;5075254;28;20844;-77
2023/03/30 04:31:11;;;;;;;7.03;3.93;;;;;;;7.01;72.01;95426.41;5075444;28;20807;-79
2023/03/30 04:33:44;;;;;;;6.23;4.90;;;;;;;7.00;72.39;95419.50;5075491;28;20444;-78
2023/03/30 04:36:11;;;;;;;7.00;5.00;;;;;;;6.90;72.35;95428.81;5075332;28;20452;-80
2023/03/30 04:38:41;;;;;;;14.23;6.40;;;;;;;6.88;72.56;95422.84;5075004;28;20461;-78
2023/03/30 04:41:10;;;;;;;5.60;5.10;;;;;;;6.84;72.30;95427.44;5074756;28;20460;-78
2023/03/30 04:43:36;;;;;;;5.63;5.13;;;;;;;6.79;72.12;95422.50;5075121;28;20828;-79
2023/03/30 04:46:03;;;;;;;6.73;5.20;;;;;;;6.82;72.24;95424.91;5074605;28;20499;-78
2023/03/30 04:48:31;;;;;;;6.23;4.83;;;;;;;6.82;71.66;95427.53;5074431;28;20476;-78
2023/03/30 04:50:58;;;;;;;5.43;4.93;;;;;;;6.79;71.86;95432.09;5074629;28;20854;-79
2023/03/30 04:53:25;;;;;;;9.23;5.10;;;;;;;6.81;72.35;95432.84;5074865;28;20452;-84
2023/03/30 04:55:53;;;;;;;6.53;4.70;;;;;;;6.87;74.97;95435.06;5074486;28;20534;-85
2023/03/30 04:58:20;;;;;;;7.77;6.97;;;;;;;6.91;72.31;95436.53;5074591;28;20501;-84
2023/03/30 05:00:47;;;;;;;13.10;8.73;;;;;;;6.88;72.18;95435.91;5075226;28;20827;-84
2023/03/30 05:03:14;;;;;;;9.83;6.43;;;;;;;6.91;74.38;95433.09;5074507;28;20480;-84
2023/03/30 05:05:42;;;;;;;7.03;5.93;;;;;;;6.95;72.35;95426.78;5074720;28;20440;-84
2023/03/30 05:08:09;;;;;;;16.83;9.17;;;;;;;6.97;71.19;95440.56;5074314;28;20480;-84
2023/03/30 05:10:36;;;;;;;8.43;5.60;;;;;;;6.90;72.09;95428.81;5074781;28;20899;-88
2023/03/30 05:16:25;;;;;;;5.77;5.20;;;;;;;6.78;72.04;95436.47;5072533;28;20455;-83
2023/03/30 05:18:52;;;;;;;8.07;5.47;;;;;;;6.76;71.65;95443.56;5074223;28;20432;-80
2023/03/30 05:21:19;;;;;;;9.93;5.37;;;;;;;6.77;71.96;95442.63;5074298;28;20444;-82
2023/03/30 05:23:46;;;;;;;8.10;6.80;;;;;;;6.75;72.19;95430.59;5074369;28;21023;-84
2023/03/30 05:26:13;;;;;;;14.30;7.13;;;;;;;6.75;72.22;95441.03;5074823;28;20453;-86
2023/03/30 05:28:41;;;;;;;9.23;7.27;;;;;;;6.80;73.42;95444.19;5074994;28;20477;-85
2023/03/30 05:31:08;;;;;;;9.43;6.80;;;;;;;6.93;74.15;95446.88;5074649;28;20638;-88
2023/03/30 05:33:37;;;;;;;9.57;7.00;;;;;;;6.94;73.90;95440.72;5056136;28;20451;-85
2023/03/30 05:36:04;;;;;;;9.43;6.23;;;;;;;7.00;72.65;95448.19;5075065;28;20463;-88
2023/03/30 05:38:31;;;;;;;8.87;6.50;;;;;;;6.87;75.13;95431.59;5074912;28;20454;-86
2023/03/30 05:40:58;;;;;;;10.97;6.80;;;;;;;7.00;73.15;95441.22;5072965;28;20479;-88
2023/03/30 05:43:25;;;;;;;8.70;6.60;;;;;;;7.12;75.32;95429.16;5073883;28;20456;-87
2023/03/30 05:45:52;;;;;;;12.83;7.83;;;;;;;7.18;72.82;95435.75;5073352;28;20833;-86
2023/03/30 05:48:19;;;;;;;10.00;7.03;;;;;;;7.20;73.17;95442.56;5073423;28;20445;-87
2023/03/30 05:50:49;;;;;;;9.43;6.50;;;;;;;6.82;77.45;95448.38;5073156;28;20958;-87
2023/03/30 05:53:16;;;;;;;9.20;7.40;;;;;;;6.55;79.48;95452.66;5073459;28;20457;-86
2023/03/30 05:55:44;;;;;;;8.20;7.03;;;;;;;6.48;80.13;95454.81;5073284;28;20468;-87
2023/03/30 05:58:11;;;;;;;10.03;7.33;;;;;;;6.22;81.61;95453.75;5073278;28;20454;-88
2023/03/30 06:00:40;;;;;;;17.40;7.93;;;;;;;6.16;82.51;95461.91;5073315;28;20457;-87
2023/03/30 06:03:07;;;;;;;9.87;8.50;;;;;;;6.09;83.70;95460.59;5073704;28;20436;-87
2023/03/30 06:05:35;;;;;;;11.30;8.10;;;;;;;6.14;83.13;95473.38;5073829;28;20451;-87
2023/03/30 06:08:03;;;;;;;12.30;8.50;;;;;;;6.13;83.54;95469.91;5073148;28;20451;-88
2023/03/30 06:10:30;;;;;;;10.50;8.00;;;;;;;5.96;84.11;95471.81;5073344;28;20571;-86
2023/03/30 06:12:57;;;;;;;12.00;7.87;;;;;;;5.72;86.95;95482.66;5073078;28;20452;-87
2023/03/30 06:15:24;;;;;;;16.23;12.53;;;;;;;5.74;86.14;95479.97;5073166;28;20943;-87
2023/03/30 06:17:54;;;;;;;14.90;9.43;;;;;;;5.41;89.06;95482.69;5073086;28;20448;-87
2023/03/30 06:20:23;;;;;;;12.33;8.93;;;;;;;5.54;88.21;95486.31;5073041;28;20452;-87
2023/03/30 06:22:50;;;;;;;10.40;7.40;;;;;;;5.40;89.93;95504.44;5072881;28;20986;-86
2023/03/30 06:25:19;;;;;;;10.90;8.97;;;;;;;5.26;89.71;95487.81;5072429;28;20480;-86
2023/03/30 06:27:46;;;;;;;15.30;12.83;;;;;;;5.38;90.58;95491.50;5072243;28;20452;-86
2023/03/30 06:30:14;;;;;;;8.20;7.20;;;;;;;5.24;89.54;95497.47;5072765;28;20900;-84
2023/03/30 06:32:41;;;;;;;19.57;11.77;;;;;;;5.42;89.78;95495.59;5071857;28;20933;-86
2023/03/30 06:35:08;;;;;;;22.50;8.27;;;;;;;5.68;87.90;95504.59;5072892;28;20476;-88
2023/03/30 06:37:36;;;;;;;15.27;8.40;;;;;;;5.92;87.25;95493.75;5073843;28;20440;-85
2023/03/30 06:40:06;;;;;;;14.10;8.30;;;;;;;6.16;85.48;95493.19;5073506;28;20480;-86
2023/03/30 06:42:35;;;;;;;12.03;7.60;;;;;;;6.36;84.19;95504.19;5055737;28;21012;-86
2023/03/30 06:45:02;;;;;;;11.87;8.20;;;;;;;6.41;82.86;95499.59;5073941;28;20428;-86
2023/03/30 06:47:29;;;;;;;13.77;7.83;;;;;;;6.42;82.36;95501.25;5077662;28;20451;-86
2023/03/30 06:49:56;;;;;;;14.27;8.47;;;;;;;6.59;81.91;95498.47;5076514;28;20482;-85
2023/03/30 06:52:22;;;;;;;9.30;7.90;;;;;;;6.73;82.10;95506.34;5076463;28;20437;-87
2023/03/30 06:54:49;;;;;;;8.30;6.87;;;;;;;6.90;81.09;95501.84;5076049;28;20809;-86
2023/03/30 06:57:16;;;;;;;14.80;8.90;;;;;;;6.96;79.84;95497.13;5076268;28;20502;-86
2023/03/30 06:59:44;;;;;;;14.60;8.47;;;;;;;7.15;78.82;95510.69;5076493;28;20544;-86
2023/03/30 07:02:14;;;;;;;12.60;7.97;;;;;;;7.35;79.07;95509.47;5076305;28;20444;-87
2023/03/30 07:04:41;;;;;;;9.87;8.87;;;;;;;7.40;75.91;95517.88;5076468;28;20442;-87
2023/03/30 07:07:07;;;;;;;20.63;10.43;;;;;;;7.40;76.08;95507.41;5075967;28;20467;-86
2023/03/30 07:09:34;;;;;;;14.33;9.53;;;;;;;7.55;75.61;95512.63;5076064;28;20480;-85
2023/03/30 07:12:01;;;;;;;12.70;7.60;;;;;;;7.60;75.62;95503.56;5076238;28;20947;-86
2023/03/30 07:14:28;;;;;;;10.17;8.63;;;;;;;7.55;74.75;95520.47;5057568;28;20435;-86
2023/03/30 07:16:56;;;;;;;7.50;6.70;;;;;;;7.57;74.03;95521.22;5076215;28;20450;-87
2023/03/30 07:19:23;;;;;;;15.27;9.07;;;;;;;7.57;73.85;95521.22;5076574;28;20428;-86
2023/03/30 07:21:50;;;;;;;14.40;9.90;;;;;;;7.69;74.10;95517.81;5075840;28;20842;-86
2023/03/30 07:24:17;;;;;;;12.50;7.23;;;;;;;7.78;73.17;95514.59;5076065;28;20483;-87
2023/03/30 07:26:44;;;;;;;79.00;41.57;;;;;;;7.75;73.04;95517.41;5075721;28;20449;-85
2023/03/30 07:29:11;;;;;;;112.83;66.23;;;;;;;7.65;73.24;95509.31;5075822;28;20478;-86
2023/03/30 07:31:38;;;;;;;9.73;8.27;;;;;;;7.64;73.45;95509.44;5075904;28;20449;-82
2023/03/30 07:34:06;;;;;;;14.00;9.30;;;;;;;7.83;72.56;95514.34;5076057;28;20452;-86
2023/03/30 07:36:33;;;;;;;11.60;8.53;;;;;;;8.02;72.75;95515.66;5075973;28;20454;-87
2023/03/30 07:39:00;;;;;;;14.93;7.53;;;;;;;8.23;72.61;95513.41;5056639;28;20453;-87
2023/03/30 07:41:27;;;;;;;14.00;8.70;;;;;;;8.27;70.90;95508.81;5075662;28;20450;-86
2023/03/30 07:43:54;;;;;;;16.93;8.97;;;;;;;8.06;71.41;95517.13;5075655;28;20449;-86
2023/03/30 07:46:21;;;;;;;12.37;8.33;;;;;;;8.25;72.19;95514.16;5075942;28;20933;-86
2023/03/30 07:48:47;;;;;;;15.67;8.10;;;;;;;8.27;70.44;95514.03;5075499;28;20463;-86
2023/03/30 07:51:16;;;;;;;11.13;8.80;;;;;;;8.29;70.20;95510.38;5075626;28;20455;-82
2023/03/30 07:53:43;;;;;;;11.60;8.30;;;;;;;8.49;71.01;95503.03;5075323;28;20814;-86
2023/03/30 07:56:10;;;;;;;11.70;7.83;;;;;;;8.77;69.68;95507.25;5074961;28;20481;-86
2023/03/30 07:58:38;;;;;;;17.93;8.20;;;;;;;9.08;69.77;95509.44;5075327;28;20482;-85
2023/03/30 08:01:05;;;;;;;10.50;7.20;;;;;;;9.04;69.41;95505.38;5075080;28;20953;-87
2023/03/30 08:03:32;;;;;;;11.10;7.30;;;;;;;9.35;68.16;95514.56;5075230;28;20486;-84
2023/03/30 08:06:03;;;;;;;8.50;7.57;;;;;;;9.70;67.39;95514.69;5075002;28;20465;-86
2023/03/30 08:08:32;;;;;;;11.80;8.70;;;;;;;9.95;65.70;95511.13;5075217;28;20529;-85
2023/03/30 08:10:59;;;;;;;15.97;6.80;;;;;;;10.18;64.33;95512.09;5074706;28;20490;-87
2023/03/30 08:13:26;;;;;;;14.03;7.80;;;;;;;10.41;63.61;95513.06;5074825;28;20460;-85
2023/03/30 08:15:54;;;;;;;14.00;8.37;;;;;;;10.53;62.28;95505.09;5074835;28;20528;-82
2023/03/30 08:18:21;;;;;;;10.63;6.93;;;;;;;10.72;62.73;95508.97;5074615;28;20938;-86
2023/03/30 08:20:51;;;;;;;12.90;7.60;;;;;;;10.97;61.90;95511.38;5074486;28;20432;-87
2023/03/30 08:23:18;;;;;;;15.53;8.43;;;;;;;11.09;60.67;95502.59;5074895;28;20532;-85
2023/03/30 08:25:51;;;;;;;10.43;7.77;;;;;;;11.20;60.42;95503.53;5074638;28;20456;-86
2023/03/30 08:28:18;;;;;;;11.63;8.90;;;;;;;11.05;58.98;95497.69;5074972;28;20493;-87
2023/03/30 08:30:46;;;;;;;19.53;9.23;;;;;;;10.89;59.91;95497.19;5074570;28;20483;-87
2023/03/30 08:33:13;;;;;;;11.10;8.10;;;;;;;10.76;60.81;95492.03;5074611;28;20863;-86
2023/03/30 08:35:40;;;;;;;13.23;8.03;;;;;;;10.62;60.56;95493.06;5074362;28;20441;-87
2023/03/30 08:38:08;;;;;;;13.10;7.77;;;;;;;10.50;61.15;95489.59;5074811;28;20853;-86
2023/03/30 08:40:39;;;;;;;8.17;7.27;;;;;;;10.63;60.87;95497.38;5074546;28;20440;-84
2023/03/30 08:43:25;;;;;;;13.00;7.57;;;;;;;10.74;59.97;95486.06;5074409;28;20842;-86
2023/03/30 08:45:53;;;;;;;9.70;7.13;;;;;;;10.91;60.68;95488.22;5074324;28;20456;-86
2023/03/30 08:48:23;;;;;;;10.10;7.00;;;;;;;11.14;60.35;95495.19;5074301;28;20523;-86
2023/03/30 08:50:57;;;;;;;8.77;5.83;;;;;;;10.96;60.21;95493.13;5074130;28;20475;-86
2023/03/30 08:53:25;;;;;;;8.67;7.10;;;;;;;11.10;60.67;95482.41;5074496;28;20440;-87
2023/03/30 08:55:57;;;;;;;10.70;6.37;;;;;;;11.15;60.10;95485.50;5073393;28;20837;-86
2023/03/30 08:58:35;;;;;;;17.03;7.07;;;;;;;11.20;59.16;95486.00;5073999;28;20441;-86
2023/03/30 09:01:12;;;;;;;6.10;5.50;;;;;;;11.27;58.13;95488.97;5073827;28;20435;-87
2023/03/30 09:03:42;;;;;;;6.37;5.77;;;;;;;11.27;58.52;95479.28;5074205;28;20432;-85
2023/03/30 09:06:14;;;;;;;9.07;7.13;;;;;;;11.31;58.83;95475.50;5073593;28;20448;-87
2023/03/30 09:08:41;;;;;;;7.37;6.67;;;;;;;11.47;57.56;95473.31;5054261;28;20436;-86
2023/03/30 09:11:13;;;;;;;11.87;7.73;;;;;;;11.52;57.21;95466.84;5073969;28;20498;-87
2023/03/30 09:13:45;;;;;;;12.23;7.87;;;;;;;11.55;57.10;95456.09;5073804;28;20531;-86
2023/03/30 09:16:19;;;;;;;12.93;8.57;;;;;;;11.80;56.94;95455.84;5073574;28;20896;-87
2023/03/30 09:18:52;;;;;;;9.10;7.17;;;;;;;11.97;57.44;95441.34;5073685;28;20449;-84
2023/03/30 09:21:21;;;;;;;10.53;8.33;;;;;;;12.18;55.64;95452.75;5073663;28;20464;-86
2023/03/30 09:23:48;;;;;;;15.47;8.27;;;;;;;12.00;54.36;95451.59;5041443;28;20443;-85
2023/03/30 09:26:26;;;;;;;9.20;7.97;;;;;;;12.09;54.74;95450.84;5079115;28;20799;-85
2023/03/30 09:29:02;;;;;;;11.03;8.20;;;;;;;12.12;54.66;95442.69;5079291;28;20462;-86
2023/03/30 09:31:36;;;;;;;9.80;7.93;;;;;;;12.21;54.21;95441.97;5074024;28;20485;-86
2023/03/30 09:34:05;;;;;;;10.40;7.93;;;;;;;12.26;54.42;95431.06;5073453;28;20864;-86
2023/03/30 09:36:38;;;;;;;17.73;8.87;;;;;;;12.58;54.54;95442.38;5073365;28;20530;-86
2023/03/30 09:39:10;;;;;;;13.90;8.07;;;;;;;12.81;53.00;95432.53;5073275;28;20444;-87
2023/03/30 09:41:51;;;;;;;12.70;7.70;;;;;;;13.04;53.47;95427.94;5073250;28;20463;-86
2023/03/30 09:44:27;;;;;;;11.13;7.67;;;;;;;13.35;51.39;95426.16;5072832;28;20469;-86
2023/03/30 09:46:58;;;;;;;10.70;7.27;;;;;;;13.65;50.51;95427.91;5072977;28;20446;-86
2023/03/30 09:49:28;;;;;;;6.53;5.40;;;;;;;13.80;48.35;95420.41;5073295;28;20824;-84
2023/03/30 09:52:02;;;;;;;6.77;5.70;;;;;;;13.91;46.25;95413.22;5073994;28;20447;-88
2023/03/30 09:54:36;;;;;;;8.53;5.30;;;;;;;13.77;46.14;95413.59;5072839;28;20478;-88
2023/03/30 09:57:03;;;;;;;4.53;4.03;;;;;;;13.53;46.26;95411.34;5074737;28;20445;-86
2023/03/30 09:59:34;;;;;;;12.63;5.40;;;;;;;13.43;47.02;95413.13;5073551;28;20437;-85
2023/03/30 10:02:17;;;;;;;6.30;4.93;;;;;;;13.39;47.03;95408.25;5072729;28;20442;-84
2023/03/30 10:04:56;;;;;;;9.60;5.80;;;;;;;13.34;47.83;95403.41;5072694;28;20464;-87
2023/03/30 10:07:25;;;;;;;9.63;5.77;;;;;;;13.30;48.32;95394.94;5073148;28;20438;-86
2023/03/30 10:09:53;;;;;;;8.57;5.37;;;;;;;13.24;47.51;95398.06;5073052;28;20544;-86
2023/03/30 10:12:21;;;;;;;4.97;4.47;;;;;;;13.02;47.21;95391.19;5073189;28;20457;-86
2023/03/30 10:14:54;;;;;;;8.80;4.77;;;;;;;12.89;47.83;95385.28;5072806;28;20474;-86
2023/03/30 10:17:23;;;;;;;5.87;4.23;;;;;;;12.94;48.09;95391.00;5073033;28;20541;-86
2023/03/30 10:19:52;;;;;;;11.13;6.00;;;;;;;12.92;47.22;95387.66;5072120;28;20479;-87
2023/03/30 10:22:22;;;;;;;6.30;4.23;;;;;;;12.76;47.20;95394.38;5073227;28;20817;-87
2023/03/30 10:24:53;;;;;;;8.80;5.20;;;;;;;12.83;48.54;95396.38;5072804;28;20449;-87
2023/03/30 10:27:27;;;;;;;6.63;3.93;;;;;;;12.90;48.20;95375.59;5073645;28;20557;-87
2023/03/30 10:29:55;;;;;;;7.27;5.17;;;;;;;12.95;46.94;95376.84;5076200;28;20822;-87
2023/03/30 10:32:28;;;;;;;8.77;3.40;;;;;;;12.86;47.04;95376.81;5072625;28;20967;-87
2023/03/30 10:35:00;;;;;;;4.50;3.50;;;;;;;12.98;47.31;95371.31;5072717;28;20905;-85
2023/03/30 10:37:32;;;;;;;4.30;3.90;;;;;;;13.06;47.46;95375.13;5037227;28;20499;-86
2023/03/30 10:40:04;;;;;;;6.43;3.30;;;;;;;13.00;46.48;95374.66;5072976;28;20485;-88
2023/03/30 10:42:33;;;;;;;3.47;3.20;;;;;;;13.14;46.13;95372.63;5073440;28;20452;-86
2023/03/30 10:45:03;;;;;;;5.20;3.67;;;;;;;13.18;45.99;95366.16;5072829;28;20438;-85
2023/03/30 10:47:44;;;;;;;4.33;3.90;;;;;;;13.28;46.61;95357.28;5072637;28;20434;-85
2023/03/30 10:50:20;;;;;;;6.70;4.07;;;;;;;13.35;46.27;95362.06;5071984;28;20991;-86
2023/03/30 10:52:57;;;;;;;4.40;3.70;;;;;;;13.34;45.88;95361.22;5072720;28;20542;-85
2023/03/30 10:55:30;;;;;;;7.10;4.63;;;;;;;13.36;47.22;95358.44;5072348;28;20476;-87
2023/03/30 10:58:10;;;;;;;4.80;3.87;;;;;;;13.41;46.20;95349.16;5072622;28;20472;-88
2023/03/30 11:00:56;;;;;;;5.97;4.73;;;;;;;13.37;46.47;95342.50;5072560;28;20430;-89
2023/03/30 11:03:27;;;;;;;4.00;2.77;;;;;;;13.43;45.82;95343.75;5072598;28;20777;-86
2023/03/30 11:05:59;;;;;;;3.60;3.13;;;;;;;13.25;46.38;95333.84;5072599;28;20502;-88
2023/03/30 11:08:29;;;;;;;7.30;3.33;;;;;;;13.22;47.03;95341.19;5072604;28;20454;-89
2023/03/30 11:10:59;;;;;;;7.03;4.27;;;;;;;13.24;47.59;95339.25;5072653;28;20490;-89
2023/03/30 11:13:30;;;;;;;7.07;3.50;;;;;;;13.15;46.76;95335.63;5072734;28;20444;-88
2023/03/30 11:16:03;;;;;;;4.07;3.67;;;;;;;13.19;47.35;95325.66;5072375;28;20824;-88
2023/03/30 11:18:37;;;;;;;4.60;3.37;;;;;;;13.28;46.53;95328.31;5072712;28;20453;-87
2023/03/30 11:21:06;;;;;;;3.60;3.30;;;;;;;13.46;46.72;95322.38;5072530;28;20454;-88
2023/03/30 11:23:42;;;;;;;6.63;4.57;;;;;;;13.58;48.36;95318.63;5072832;28;20457;-89
2023/03/30 11:26:11;;;;;;;5.63;3.20;;;;;;;13.70;46.06;95316.72;5072408;28;20445;-86
2023/03/30 11:28:51;;;;;;;6.80;3.90;;;;;;;13.81;45.78;95316.56;5072302;28;20507;-89
2023/03/30 11:31:37;;;;;;;4.63;4.23;;;;;;;14.03;44.97;95311.00;5073442;28;20543;-87
2023/03/30 11:34:12;;;;;;;7.40;4.27;;;;;;;14.10;45.69;95303.34;5075819;28;20826;-87
2023/03/30 11:36:45;;;;;;;4.27;3.40;;;;;;;14.15;43.91;95307.22;5075484;28;20856;-87
2023/03/30 11:39:15;;;;;;;4.20;3.73;;;;;;;14.15;43.68;95298.47;5075616;28;20451;-89
2023/03/30 11:41:47;;;;;;;6.27;4.50;;;;;;;14.07;43.96;95293.91;5075687;28;20816;-90
2023/03/30 11:44:14;;;;;;;4.87;3.70;;;;;;;14.00;43.43;95290.19;5074972;28;20432;-88
2023/03/30 11:46:51;;;;;;;6.00;4.93;;;;;;;14.09;44.22;95278.78;5075715;28;20809;-86
2023/03/30 11:49:42;;;;;;;8.20;3.90;;;;;;;14.04;44.89;95285.44;5075617;28;20447;-88
2023/03/30 11:52:22;;;;;;;5.17;4.20;;;;;;;14.09;44.69;95284.03;5075463;28;20478;-87
2023/03/30 11:55:08;;;;;;;7.73;4.13;;;;;;;14.08;43.90;95278.91;5075436;28;20465;-88